Time;durP1;ratioP1;P1;durP2;ratioP2;P2;SDS_P1;SDS_P2;PMS_P1;PMS_P2;Temp;Humidity;BMP_temperature;BMP_pressure;BME280_temperature;BME280_humidity;BME280_pressure;Samples;Min_cycle;Max_cycle;Signal;HPM_P1;HPM_P2
2022/04/11 00:01:22;;;;;;;6.83;4.40;;;8.80;99.90;;;;;;5029760;28;20248;-79
2022/04/11 00:03:49;;;;;;;5.57;4.53;;;8.80;99.90;;;;;;5026480;28;20244;-79
2022/04/11 00:06:16;;;;;;;6.03;4.53;;;8.70;99.90;;;;;;5027521;28;20291;-79
2022/04/11 00:08:43;;;;;;;5.80;4.53;;;8.70;99.90;;;;;;5029632;28;20581;-81
2022/04/11 00:11:10;;;;;;;8.10;4.83;;;8.70;99.90;;;;;;5032892;28;20299;-79
2022/04/11 00:13:37;;;;;;;5.47;4.70;;;8.70;99.90;;;;;;5025186;28;20312;-79
2022/04/11 00:16:07;;;;;;;7.43;5.13;;;8.70;99.90;;;;;;5032655;28;20292;-80
2022/04/11 00:18:34;;;;;;;6.77;5.83;;;8.70;99.90;;;;;;5029469;28;20229;-80
2022/04/11 00:21:02;;;;;;;7.40;5.30;;;8.70;99.90;;;;;;5043250;28;20204;-79
2022/04/11 00:23:29;;;;;;;7.13;5.10;;;8.70;99.90;;;;;;5031423;28;20277;-82
2022/04/11 00:25:56;;;;;;;11.77;5.30;;;8.60;99.90;;;;;;5046988;28;20228;-80
2022/04/11 00:28:23;;;;;;;6.60;5.27;;;8.70;99.90;;;;;;5029773;28;20247;-79
2022/04/11 00:30:49;;;;;;;7.23;5.40;;;8.60;99.90;;;;;;5031025;28;20220;-82
2022/04/11 00:33:16;;;;;;;10.53;5.63;;;8.60;99.90;;;;;;5030432;28;20209;-82
2022/04/11 00:35:43;;;;;;;7.57;5.30;;;8.60;99.90;;;;;;5031837;28;20209;-81
2022/04/11 00:38:10;;;;;;;10.73;5.23;;;8.60;99.90;;;;;;5032834;28;20605;-81
2022/04/11 00:40:37;;;;;;;9.60;5.90;;;8.60;99.90;;;;;;5030602;28;20209;-79
2022/04/11 00:43:04;;;;;;;9.73;5.70;;;8.50;99.90;;;;;;5028376;28;20223;-81
2022/04/11 00:45:31;;;;;;;8.73;5.57;;;8.50;99.90;;;;;;5047248;28;20292;-78
2022/04/11 00:47:58;;;;;;;8.73;5.80;;;8.60;99.90;;;;;;5027981;28;20550;-78
2022/04/11 00:50:25;;;;;;;8.00;5.77;;;8.50;99.90;;;;;;5030592;28;20195;-84
2022/04/11 00:52:55;;;;;;;10.33;5.93;;;8.50;99.90;;;;;;5047737;28;20220;-83
2022/04/11 00:55:24;;;;;;;13.00;6.07;;;8.50;99.90;;;;;;5028481;28;20594;-79
2022/04/11 00:57:51;;;;;;;8.40;5.73;;;8.50;99.90;;;;;;5027192;28;20207;-80
2022/04/11 01:00:19;;;;;;;8.93;6.53;;;8.40;99.90;;;;;;5013668;28;20254;-80
2022/04/11 01:02:46;;;;;;;9.90;5.63;;;8.40;99.90;;;;;;5027024;28;20654;-81
2022/04/11 01:05:13;;;;;;;10.50;6.47;;;8.40;99.90;;;;;;5033684;28;20211;-82
2022/04/11 01:07:44;;;;;;;8.97;6.27;;;8.30;99.90;;;;;;5042191;28;20223;-80
2022/04/11 01:10:11;;;;;;;8.40;6.13;;;8.30;99.90;;;;;;5024477;28;20196;-80
2022/04/11 01:12:39;;;;;;;8.37;7.03;;;8.30;99.90;;;;;;5044198;28;20250;-80
2022/04/11 01:15:07;;;;;;;8.20;6.80;;;8.30;99.90;;;;;;5045258;28;20198;-80
2022/04/11 01:17:36;;;;;;;9.23;6.37;;;8.30;99.90;;;;;;5044389;28;20713;-79
2022/04/11 01:20:12;;;;;;;9.43;6.13;;;8.30;99.90;;;;;;5027656;28;20300;-79
2022/04/11 01:22:40;;;;;;;11.30;7.23;;;8.30;99.90;;;;;;5027871;28;20677;-80
2022/04/11 01:25:08;;;;;;;10.60;6.40;;;8.30;99.90;;;;;;5043288;28;20271;-80
2022/04/11 01:27:36;;;;;;;8.27;6.83;;;8.20;99.90;;;;;;5026854;28;20203;-80
2022/04/11 01:30:05;;;;;;;13.30;6.83;;;8.30;99.90;;;;;;5045606;28;20203;-80
2022/04/11 01:32:32;;;;;;;8.20;6.67;;;8.40;99.90;;;;;;5044967;28;20235;-78
2022/04/11 01:34:59;;;;;;;11.00;7.13;;;8.40;99.90;;;;;;5026377;28;20554;-82
2022/04/11 01:37:27;;;;;;;11.47;7.67;;;8.20;99.90;;;;;;5046161;28;20282;-79
2022/04/11 01:39:54;;;;;;;12.17;6.77;;;8.30;99.90;;;;;;5027133;28;20235;-79
2022/04/11 01:42:20;;;;;;;10.67;7.20;;;8.30;99.90;;;;;;5027238;28;20311;-83
2022/04/11 01:44:48;;;;;;;10.90;7.57;;;8.20;99.90;;;;;;5027280;28;20271;-79
2022/04/11 01:47:14;;;;;;;10.87;7.33;;;8.20;99.90;;;;;;5029151;28;20249;-78
2022/04/11 01:49:41;;;;;;;8.13;7.27;;;8.20;99.90;;;;;;5029481;28;20655;-80
2022/04/11 01:52:08;;;;;;;9.50;7.27;;;8.20;99.90;;;;;;5029349;28;20255;-79
2022/04/11 01:54:35;;;;;;;9.03;7.57;;;8.10;99.90;;;;;;5028494;28;20206;-79
2022/04/11 01:57:02;;;;;;;8.80;7.30;;;8.00;99.90;;;;;;5028141;28;20247;-80
2022/04/11 01:59:29;;;;;;;9.20;7.40;;;8.10;99.90;;;;;;5027979;28;20242;-80
2022/04/11 02:01:56;;;;;;;10.37;7.13;;;8.10;99.90;;;;;;5046071;28;20539;-81
2022/04/11 02:04:23;;;;;;;9.67;6.63;;;8.10;99.90;;;;;;5028911;28;20215;-80
2022/04/11 02:06:50;;;;;;;10.37;7.53;;;8.00;99.90;;;;;;5029426;28;20226;-79
2022/04/11 02:09:17;;;;;;;10.40;7.50;;;8.00;99.90;;;;;;5029571;28;20310;-79
2022/04/11 02:11:44;;;;;;;8.90;7.47;;;8.00;99.90;;;;;;5026783;28;20769;-82
2022/04/11 02:14:10;;;;;;;9.03;6.57;;;8.00;99.90;;;;;;5027900;28;20242;-81
2022/04/11 02:16:37;;;;;;;10.97;7.33;;;7.90;99.90;;;;;;5030661;28;20674;-80
2022/04/11 02:19:04;;;;;;;7.57;6.87;;;7.90;99.90;;;;;;5030721;28;20694;-81
2022/04/11 02:21:31;;;;;;;8.33;7.27;;;7.90;99.90;;;;;;5029036;28;20205;-80
2022/04/11 02:23:58;;;;;;;11.27;7.87;;;7.90;99.90;;;;;;5027921;28;20264;-79
2022/04/11 02:26:25;;;;;;;9.77;7.33;;;7.90;99.90;;;;;;5028440;28;20228;-80
2022/04/11 02:28:52;;;;;;;9.30;7.50;;;7.90;99.90;;;;;;5028822;28;20235;-80
2022/04/11 02:31:19;;;;;;;8.43;7.60;;;7.80;99.90;;;;;;5049509;28;21094;-81
2022/04/11 02:33:46;;;;;;;8.70;7.00;;;7.90;99.90;;;;;;5032712;28;20259;-83
2022/04/11 02:36:12;;;;;;;8.77;7.37;;;7.90;99.90;;;;;;5033144;28;20660;-82
2022/04/11 02:38:39;;;;;;;12.13;7.93;;;7.90;99.90;;;;;;5032295;28;20219;-81
2022/04/11 02:41:07;;;;;;;9.10;8.17;;;7.80;99.90;;;;;;5031976;28;20602;-80
2022/04/11 02:43:34;;;;;;;8.40;7.50;;;7.80;99.90;;;;;;5032574;28;20227;-80
2022/04/11 02:46:01;;;;;;;10.87;8.50;;;7.70;99.90;;;;;;5032290;28;20751;-80
2022/04/11 02:48:28;;;;;;;10.37;7.17;;;7.80;99.90;;;;;;5032391;28;20256;-82
2022/04/11 02:50:54;;;;;;;9.07;7.43;;;7.70;99.90;;;;;;5033530;28;20680;-80
2022/04/11 02:53:23;;;;;;;13.73;7.77;;;7.70;99.90;;;;;;5032992;28;20210;-80
2022/04/11 02:55:50;;;;;;;11.13;8.37;;;7.70;99.90;;;;;;5031547;28;20238;-79
2022/04/11 02:58:17;;;;;;;8.63;7.80;;;7.60;99.90;;;;;;5030020;28;20213;-80
2022/04/11 03:00:43;;;;;;;8.50;7.17;;;7.60;99.90;;;;;;5030721;28;20196;-80
2022/04/11 03:03:10;;;;;;;12.83;8.40;;;7.60;99.90;;;;;;5032599;28;20207;-80
2022/04/11 03:05:38;;;;;;;11.27;7.93;;;7.50;99.90;;;;;;5032374;28;20214;-80
2022/04/11 03:08:05;;;;;;;8.27;7.20;;;7.40;99.90;;;;;;5032532;28;20221;-80
2022/04/11 03:10:32;;;;;;;9.03;7.50;;;7.40;99.90;;;;;;5030682;28;20206;-79
2022/04/11 03:12:59;;;;;;;8.63;7.37;;;7.40;99.90;;;;;;5011748;28;20240;-79
2022/04/11 03:15:26;;;;;;;9.23;7.93;;;7.40;99.90;;;;;;4991943;28;20279;-78
2022/04/11 03:17:53;;;;;;;10.30;7.77;;;7.40;99.90;;;;;;4991282;28;20228;-80
2022/04/11 03:20:20;;;;;;;8.60;7.70;;;7.30;99.90;;;;;;4990835;28;20721;-80
2022/04/11 03:22:46;;;;;;;10.53;7.87;;;7.30;99.90;;;;;;4993793;28;20213;-79
2022/04/11 03:25:13;;;;;;;9.30;7.53;;;7.20;99.90;;;;;;4993892;28;20232;-79
2022/04/11 03:27:40;;;;;;;8.70;7.80;;;7.30;99.90;;;;;;4992628;28;20349;-79
2022/04/11 03:30:08;;;;;;;9.43;7.30;;;7.30;99.90;;;;;;4989611;28;20198;-82
2022/04/11 03:32:35;;;;;;;10.80;8.20;;;7.30;99.90;;;;;;5007695;28;20209;-80
2022/04/11 03:35:03;;;;;;;9.33;8.20;;;7.20;99.90;;;;;;4993616;28;20617;-80
2022/04/11 03:37:30;;;;;;;9.57;8.50;;;7.20;99.90;;;;;;4993761;28;20657;-80
2022/04/11 03:39:57;;;;;;;14.83;8.60;;;7.20;99.90;;;;;;4992940;28;20231;-80
2022/04/11 03:42:24;;;;;;;9.50;7.87;;;7.10;99.90;;;;;;4993434;28;20203;-82
2022/04/11 03:44:51;;;;;;;9.03;8.13;;;7.20;99.90;;;;;;4991781;28;20708;-79
2022/04/11 03:47:18;;;;;;;8.97;7.83;;;7.20;99.90;;;;;;5010331;28;20263;-80
2022/04/11 03:49:45;;;;;;;10.50;7.53;;;7.00;99.90;;;;;;4993363;28;23326;-78
2022/04/11 03:52:12;;;;;;;8.67;7.77;;;7.00;99.90;;;;;;4992839;28;20607;-79
2022/04/11 03:54:39;;;;;;;11.03;7.20;;;7.00;99.90;;;;;;4993031;28;20662;-80
2022/04/11 03:57:06;;;;;;;8.83;7.93;;;7.00;99.90;;;;;;4993084;28;20236;-83
2022/04/11 03:59:33;;;;;;;13.10;7.50;;;7.00;99.90;;;;;;4991072;28;20258;-79
2022/04/11 04:02:00;;;;;;;9.30;8.13;;;7.10;99.90;;;;;;4992769;28;20240;-79
2022/04/11 04:04:27;;;;;;;10.20;7.97;;;7.00;99.90;;;;;;4986161;28;20229;-79
2022/04/11 04:06:54;;;;;;;12.63;7.90;;;7.10;99.90;;;;;;4990211;28;20230;-79
2022/04/11 04:09:20;;;;;;;8.33;7.50;;;7.00;99.90;;;;;;4990978;28;20251;-80
2022/04/11 04:11:47;;;;;;;8.67;7.77;;;6.90;99.90;;;;;;5011819;28;20240;-81
2022/04/11 04:14:14;;;;;;;8.47;7.40;;;6.90;99.90;;;;;;5008333;28;20298;-80
2022/04/11 04:16:41;;;;;;;14.77;8.17;;;6.90;99.90;;;;;;5028385;28;20574;-79
2022/04/11 04:19:10;;;;;;;11.70;9.10;;;7.00;99.90;;;;;;5029302;28;20212;-79
2022/04/11 04:21:37;;;;;;;9.43;7.40;;;7.00;99.90;;;;;;4995519;28;20238;-82
2022/04/11 04:24:04;;;;;;;10.10;7.87;;;6.90;99.90;;;;;;5028412;28;20717;-79
2022/04/11 04:26:31;;;;;;;8.77;7.23;;;6.90;99.90;;;;;;5011660;28;20210;-81
2022/04/11 04:28:58;;;;;;;12.93;7.50;;;6.90;99.90;;;;;;5029402;28;20240;-79
2022/04/11 04:31:25;;;;;;;8.30;7.50;;;6.90;99.90;;;;;;5012923;28;20198;-79
2022/04/11 04:33:52;;;;;;;9.27;7.67;;;6.90;99.90;;;;;;5010678;28;20194;-80
2022/04/11 04:36:19;;;;;;;12.47;7.93;;;6.80;99.90;;;;;;5011544;28;20268;-79
2022/04/11 04:38:46;;;;;;;10.37;7.40;;;7.00;99.90;;;;;;5017065;28;20199;-78
2022/04/11 04:41:13;;;;;;;9.33;8.23;;;6.90;99.90;;;;;;5016604;28;20204;-79
2022/04/11 04:43:39;;;;;;;9.33;7.50;;;6.90;99.90;;;;;;5011386;28;20211;-79
2022/04/11 04:46:06;;;;;;;12.07;7.67;;;6.80;99.90;;;;;;5010804;28;20209;-80
2022/04/11 04:48:33;;;;;;;9.17;8.20;;;6.80;99.90;;;;;;5027193;28;20207;-80
2022/04/11 04:51:01;;;;;;;8.90;7.77;;;6.70;99.90;;;;;;5012373;28;20210;-82
2022/04/11 04:53:28;;;;;;;10.47;7.53;;;6.70;99.90;;;;;;5008521;28;20233;-81
2022/04/11 04:55:54;;;;;;;7.97;7.23;;;6.70;99.90;;;;;;5010558;28;20236;-80
2022/04/11 04:58:23;;;;;;;12.73;8.00;;;6.70;99.90;;;;;;5008695;28;20198;-80
2022/04/11 05:00:50;;;;;;;14.83;9.00;;;6.80;99.90;;;;;;5005275;28;20211;-79
2022/04/11 05:03:17;;;;;;;8.93;7.90;;;6.80;99.90;;;;;;4990139;28;20297;-81
2022/04/11 05:05:44;;;;;;;8.87;7.50;;;6.70;99.90;;;;;;5006156;28;20266;-80
2022/04/11 05:08:11;;;;;;;7.60;6.80;;;6.70;99.90;;;;;;5008308;28;20242;-81
2022/04/11 05:10:38;;;;;;;9.97;7.27;;;6.60;99.90;;;;;;5005962;28;20604;-81
2022/04/11 05:13:04;;;;;;;10.87;7.23;;;6.70;99.90;;;;;;5006480;28;20315;-85
2022/04/11 05:15:31;;;;;;;10.40;7.43;;;6.60;99.90;;;;;;5004346;28;20348;-81
2022/04/11 05:18:05;;;;;;;9.07;8.07;;;6.70;99.90;;;;;;4988312;28;20250;-81
2022/04/11 05:20:33;;;;;;;9.10;6.57;;;6.70;99.90;;;;;;4982606;28;20573;-83
2022/04/11 05:23:00;;;;;;;8.93;7.20;;;6.60;99.90;;;;;;4990256;28;20614;-83
2022/04/11 05:25:27;;;;;;;10.37;7.40;;;6.60;99.90;;;;;;4990692;28;20211;-81
2022/04/11 05:27:54;;;;;;;9.00;7.63;;;6.60;99.90;;;;;;5007932;28;20262;-82
2022/04/11 05:30:21;;;;;;;8.87;7.00;;;6.60;99.90;;;;;;5007725;28;20205;-83
2022/04/11 05:32:48;;;;;;;9.07;7.70;;;6.60;99.90;;;;;;5008531;28;20229;-82
2022/04/11 05:35:16;;;;;;;13.20;8.47;;;6.60;99.90;;;;;;4990951;28;20219;-81
2022/04/11 05:37:43;;;;;;;9.63;7.40;;;6.70;99.90;;;;;;4991485;28;20291;-81
2022/04/11 05:40:12;;;;;;;12.13;7.87;;;6.70;99.90;;;;;;4991558;28;20228;-85
2022/04/11 05:42:39;;;;;;;11.30;8.20;;;6.60;99.90;;;;;;4987929;28;20744;-84
2022/04/11 05:45:06;;;;;;;10.47;7.70;;;6.50;99.90;;;;;;4990908;28;20281;-84
2022/04/11 05:47:33;;;;;;;8.50;7.30;;;6.50;99.90;;;;;;4991768;28;20306;-81
2022/04/11 05:50:00;;;;;;;9.33;8.20;;;6.60;99.90;;;;;;4989668;28;20669;-82
2022/04/11 05:52:27;;;;;;;11.43;8.37;;;6.60;99.90;;;;;;4974573;28;20215;-85
2022/04/11 05:54:54;;;;;;;16.27;8.53;;;6.60;99.90;;;;;;4987603;28;20222;-81
2022/04/11 05:57:21;;;;;;;10.90;8.27;;;6.60;99.90;;;;;;4988696;28;20227;-82
2022/04/11 05:59:47;;;;;;;10.67;8.40;;;6.70;99.90;;;;;;4989635;28;20213;-79
2022/04/11 06:02:14;;;;;;;11.97;7.93;;;6.70;99.90;;;;;;5004646;28;20240;-81
2022/04/11 06:04:41;;;;;;;10.57;8.30;;;6.80;99.90;;;;;;4962333;28;20238;-77
2022/04/11 06:07:08;;;;;;;13.13;8.33;;;6.80;99.90;;;;;;4973419;28;20293;-79
2022/04/11 06:09:35;;;;;;;11.00;8.90;;;6.80;99.90;;;;;;5004778;28;20293;-77
2022/04/11 06:12:03;;;;;;;13.67;9.13;;;6.70;99.90;;;;;;5006675;28;20374;-78
2022/04/11 06:14:29;;;;;;;11.83;8.60;;;6.60;99.90;;;;;;4985837;28;20253;-79
2022/04/11 06:16:56;;;;;;;10.90;8.53;;;6.80;99.90;;;;;;5008044;28;20206;-78
2022/04/11 06:19:23;;;;;;;10.60;8.27;;;6.90;99.90;;;;;;5007799;28;20216;-78
2022/04/11 06:21:50;;;;;;;11.33;8.67;;;7.20;99.90;;;;;;5011313;28;20354;-79
2022/04/11 06:24:17;;;;;;;10.73;8.10;;;7.30;99.90;;;;;;4988364;28;20203;-80
2022/04/11 06:26:44;;;;;;;9.27;7.53;;;7.40;99.90;;;;;;4992572;28;20235;-79
2022/04/11 06:29:11;;;;;;;9.23;8.30;;;7.50;99.90;;;;;;4975390;28;20208;-80
2022/04/11 06:31:38;;;;;;;9.30;7.90;;;7.60;99.90;;;;;;4988009;28;20719;-79
2022/04/11 06:34:05;;;;;;;9.37;7.37;;;7.60;99.90;;;;;;5005168;28;20730;-78
2022/04/11 06:36:32;;;;;;;8.90;7.27;;;7.80;99.90;;;;;;4978179;28;20245;-79
2022/04/11 06:38:59;;;;;;;12.70;6.73;;;7.90;99.90;;;;;;5001101;28;20216;-80
2022/04/11 06:41:29;;;;;;;9.53;7.37;;;7.90;99.90;;;;;;4986440;28;20207;-80
2022/04/11 06:43:56;;;;;;;8.10;7.23;;;8.20;99.90;;;;;;5004906;28;20226;-79
2022/04/11 06:46:24;;;;;;;9.83;7.07;;;8.30;99.90;;;;;;5001260;28;20656;-82
2022/04/11 06:48:54;;;;;;;11.87;7.23;;;8.50;99.90;;;;;;4991479;28;20342;-82
2022/04/11 06:51:20;;;;;;;9.40;7.53;;;8.40;99.90;;;;;;4989778;28;20938;-81
2022/04/11 06:53:48;;;;;;;8.93;7.23;;;8.50;99.90;;;;;;4986799;28;20269;-78
2022/04/11 06:56:15;;;;;;;10.47;7.50;;;8.90;99.90;;;;;;5004012;28;20703;-78
2022/04/11 06:58:42;;;;;;;8.73;7.50;;;9.30;99.90;;;;;;4987793;28;20236;-80
2022/04/11 07:01:09;;;;;;;9.97;7.23;;;9.30;99.90;;;;;;4986205;28;20297;-78
2022/04/11 07:03:36;;;;;;;7.90;6.87;;;9.40;99.90;;;;;;4971776;28;20228;-77
2022/04/11 07:06:02;;;;;;;8.60;6.67;;;9.30;99.90;;;;;;4985990;28;20566;-78
2022/04/11 07:08:29;;;;;;;10.73;7.57;;;9.60;99.90;;;;;;5006127;28;20323;-77
2022/04/11 07:11:00;;;;;;;7.40;6.67;;;9.70;99.90;;;;;;4989636;28;20291;-78
2022/04/11 07:13:27;;;;;;;8.10;7.30;;;9.60;99.90;;;;;;5010330;28;20404;-78
2022/04/11 07:15:54;;;;;;;8.33;6.63;;;9.80;99.90;;;;;;5005460;28;20284;-77
2022/04/11 07:18:25;;;;;;;8.27;6.97;;;10.00;99.90;;;;;;5006536;28;20216;-78
2022/04/11 07:20:55;;;;;;;9.77;6.47;;;9.90;99.90;;;;;;4989057;28;20268;-77
2022/04/11 07:23:23;;;;;;;8.03;6.77;;;10.10;99.90;;;;;;5007409;28;20202;-78
2022/04/11 07:25:50;;;;;;;9.27;5.97;;;10.10;99.90;;;;;;5007256;28;20217;-77
2022/04/11 07:28:20;;;;;;;10.73;6.40;;;10.20;99.90;;;;;;5010294;28;20202;-77
2022/04/11 07:30:47;;;;;;;8.47;6.07;;;10.60;99.90;;;;;;4990995;28;20221;-78
2022/04/11 07:33:14;;;;;;;7.13;6.00;;;10.90;99.90;;;;;;4991024;28;20205;-79
2022/04/11 07:35:41;;;;;;;12.07;5.97;;;10.50;99.90;;;;;;4988494;28;20206;-79
2022/04/11 07:38:08;;;;;;;8.53;5.27;;;10.90;99.90;;;;;;5008278;28;20566;-77
2022/04/11 07:40:35;;;;;;;9.00;6.30;;;10.80;99.90;;;;;;4989081;28;20301;-76
2022/04/11 07:43:02;;;;;;;8.37;5.60;;;10.80;99.90;;;;;;4992746;28;20247;-76
2022/04/11 07:45:29;;;;;;;6.57;5.90;;;11.20;99.90;;;;;;4991074;28;20303;-76
2022/04/11 07:47:56;;;;;;;5.83;5.23;;;11.40;99.90;;;;;;5008990;28;20490;-77
2022/04/11 07:50:22;;;;;;;6.27;5.40;;;11.10;99.90;;;;;;4992103;28;20288;-77
2022/04/11 07:52:49;;;;;;;8.13;5.53;;;11.20;99.90;;;;;;4992424;28;20745;-77
2022/04/11 07:55:20;;;;;;;8.70;6.27;;;11.20;99.90;;;;;;5009638;28;20203;-77
2022/04/11 07:57:47;;;;;;;6.53;5.47;;;11.50;99.90;;;;;;4999517;28;20285;-77
2022/04/11 08:00:21;;;;;;;6.70;5.57;;;11.40;99.90;;;;;;5009750;28;20663;-76
2022/04/11 08:02:55;;;;;;;6.63;5.53;;;11.70;99.90;;;;;;4989240;28;20214;-78
2022/04/11 08:05:23;;;;;;;5.80;5.20;;;11.90;99.90;;;;;;5008002;28;20371;-76
2022/04/11 08:07:50;;;;;;;6.77;5.70;;;12.10;99.90;;;;;;5006383;28;20204;-77
2022/04/11 08:10:18;;;;;;;6.33;5.57;;;11.90;99.90;;;;;;4984651;28;20207;-77
2022/04/11 08:12:52;;;;;;;8.33;5.53;;;12.10;99.90;;;;;;5023692;28;20242;-78
2022/04/11 08:15:19;;;;;;;7.33;5.30;;;12.20;99.90;;;;;;5031027;28;20296;-77
2022/04/11 08:17:46;;;;;;;7.13;5.40;;;12.40;99.90;;;;;;5029585;28;20214;-77
2022/04/11 08:20:14;;;;;;;5.63;4.83;;;12.50;99.90;;;;;;5029084;28;20631;-77
2022/04/11 08:22:44;;;;;;;6.10;4.67;;;12.60;99.90;;;;;;5049748;28;20246;-77
2022/04/11 08:25:11;;;;;;;8.30;4.70;;;12.70;99.90;;;;;;5047519;28;20255;-77
2022/04/11 08:27:38;;;;;;;5.97;4.83;;;13.00;99.90;;;;;;5031664;28;20211;-76
2022/04/11 08:30:06;;;;;;;8.43;5.03;;;13.20;99.90;;;;;;5025703;28;20214;-78
2022/04/11 08:32:47;;;;;;;5.23;4.47;;;13.00;99.90;;;;;;5044424;28;20237;-79
2022/04/11 08:35:15;;;;;;;5.53;4.60;;;13.10;99.90;;;;;;5045198;28;20298;-78
2022/04/11 08:37:42;;;;;;;6.53;5.10;;;13.40;99.90;;;;;;5048059;28;20572;-77
2022/04/11 08:40:18;;;;;;;7.27;4.73;;;13.20;99.90;;;;;;5050805;28;20293;-77
2022/04/11 08:42:46;;;;;;;7.83;4.83;;;13.00;99.90;;;;;;5033616;28;20296;-78
2022/04/11 08:45:13;;;;;;;8.27;4.60;;;13.50;99.90;;;;;;5033188;28;20586;-76
2022/04/11 08:47:42;;;;;;;5.87;4.77;;;13.90;99.90;;;;;;5034106;28;20250;-78
2022/04/11 08:50:16;;;;;;;6.13;4.57;;;13.60;99.90;;;;;;5048725;28;20740;-55
2022/04/11 08:52:43;;;;;;;7.93;4.83;;;14.00;99.90;;;;;;5047984;28;20249;-55
2022/04/11 08:55:11;;;;;;;8.17;4.93;;;14.30;99.90;;;;;;5047340;28;20837;-54
2022/04/11 08:57:38;;;;;;;6.03;5.20;;;14.30;99.90;;;;;;5037643;28;20229;-55
2022/04/11 09:00:11;;;;;;;4.63;4.10;;;14.20;99.90;;;;;;5014613;28;20229;-55
2022/04/11 09:02:38;;;;;;;5.63;4.70;;;14.30;99.90;;;;;;5013556;28;20261;-55
2022/04/11 09:05:06;;;;;;;9.37;4.70;;;14.50;99.90;;;;;;5012941;28;20653;-54
2022/04/11 09:07:50;;;;;;;8.43;4.57;;;14.60;99.90;;;;;;5013131;28;20233;-55
2022/04/11 09:10:19;;;;;;;6.20;4.70;;;14.70;99.90;;;;;;5015819;28;20207;-54
2022/04/11 09:12:47;;;;;;;8.83;4.60;;;15.10;99.90;;;;;;5012079;28;20824;-54
2022/04/11 09:15:15;;;;;;;9.10;4.87;;;15.20;99.90;;;;;;5012919;28;20196;-55
2022/04/11 09:17:43;;;;;;;9.80;6.17;;;14.90;99.90;;;;;;5010786;28;20245;-54
2022/04/11 09:20:15;;;;;;;6.30;4.10;;;15.00;99.90;;;;;;5012417;28;20736;-56
2022/04/11 09:22:43;;;;;;;5.47;4.40;;;15.00;99.90;;;;;;5015727;28;20728;-54
2022/04/11 09:25:18;;;;;;;5.90;4.70;;;14.80;99.90;;;;;;5010721;28;20739;-55
2022/04/11 09:27:46;;;;;;;7.80;4.37;;;15.20;99.90;;;;;;5013413;28;20361;-54
2022/04/11 09:30:25;;;;;;;5.00;3.87;;;15.30;99.90;;;;;;5011620;28;20333;-55
2022/04/11 09:32:59;;;;;;;5.30;3.20;;;15.40;99.90;;;;;;5009459;28;20617;-54
2022/04/11 09:35:34;;;;;;;5.57;3.07;;;15.10;99.90;;;;;;5011139;28;20352;-54
2022/04/11 09:38:07;;;;;;;4.93;3.07;;;15.20;99.90;;;;;;5012361;28;20690;-54
2022/04/11 09:40:40;;;;;;;5.83;3.27;;;15.20;99.90;;;;;;5011659;28;20597;-54
2022/04/11 09:43:08;;;;;;;7.37;3.50;;;15.00;99.90;;;;;;5008903;28;20254;-54
2022/04/11 09:45:42;;;;;;;6.20;3.13;;;15.30;99.90;;;;;;5012057;28;20512;-54
2022/04/11 09:48:10;;;;;;;4.93;2.90;;;15.70;99.90;;;;;;5009007;28;20930;-55
2022/04/11 09:50:37;;;;;;;4.57;2.67;;;15.80;99.90;;;;;;5012999;28;20215;-55
2022/04/11 09:53:14;;;;;;;3.43;2.20;;;15.80;99.90;;;;;;5011258;28;20708;-54
2022/04/11 09:55:43;;;;;;;2.57;2.23;;;15.80;99.90;;;;;;5013641;28;20294;-54
2022/04/11 09:58:10;;;;;;;3.10;1.83;;;15.90;99.90;;;;;;5010031;28;20310;-55
2022/04/11 10:00:40;;;;;;;2.90;2.40;;;15.40;99.90;;;;;;5003632;28;20220;-54
2022/04/11 10:03:07;;;;;;;4.60;2.47;;;14.80;99.90;;;;;;4997376;28;20313;-54
2022/04/11 10:05:35;;;;;;;5.50;2.70;;;14.80;99.90;;;;;;4995457;28;20202;-54
2022/04/11 10:08:04;;;;;;;6.70;2.60;;;15.10;99.90;;;;;;4999414;28;20667;-54
2022/04/11 10:10:38;;;;;;;3.63;2.50;;;15.30;99.90;;;;;;4998085;28;20305;-55
2022/04/11 10:13:13;;;;;;;5.03;2.80;;;14.90;99.90;;;;;;4997508;28;20301;-55
2022/04/11 10:15:42;;;;;;;3.10;2.63;;;15.20;99.90;;;;;;4997648;28;20570;-53
2022/04/11 10:18:13;;;;;;;4.53;2.70;;;15.00;99.90;;;;;;4993427;28;20306;-54
2022/04/11 10:20:43;;;;;;;4.80;3.20;;;15.10;99.90;;;;;;4999300;28;20320;-55
2022/04/11 10:23:50;;;;;;;4.03;3.03;;;15.00;99.90;;;;;;4996330;28;20305;-55
2022/04/11 10:26:19;;;;;;;5.30;3.27;;;15.30;99.90;;;;;;4997706;28;20292;-54
2022/04/11 10:28:47;;;;;;;5.10;3.17;;;15.20;99.90;;;;;;5011562;28;20215;-53
2022/04/11 10:31:15;;;;;;;3.90;3.17;;;14.70;99.90;;;;;;4996544;28;20206;-53
2022/04/11 10:33:50;;;;;;;4.90;3.00;;;14.80;99.90;;;;;;4998029;28;20330;-55
2022/04/11 10:36:38;;;;;;;4.70;3.30;;;15.30;99.90;;;;;;5000164;28;20209;-56
2022/04/11 10:39:14;;;;;;;6.03;3.10;;;15.40;99.90;;;;;;4999031;28;20590;-54
2022/04/11 10:42:14;;;;;;;4.87;3.30;;;15.50;99.90;;;;;;4997354;28;20294;-55
2022/04/11 10:44:45;;;;;;;4.80;3.57;;;15.00;99.90;;;;;;4993731;28;20602;-55
2022/04/11 10:47:12;;;;;;;6.33;2.87;;;15.10;99.90;;;;;;4996413;28;20220;-54
2022/04/11 10:49:45;;;;;;;4.27;2.90;;;14.90;99.90;;;;;;4995532;28;21146;-55
2022/04/11 10:52:31;;;;;;;5.13;3.40;;;15.10;99.90;;;;;;4996005;28;20203;-55
2022/04/11 10:55:19;;;;;;;4.97;2.50;;;15.40;99.90;;;;;;4997175;28;20202;-55
2022/04/11 10:57:52;;;;;;;4.63;2.87;;;15.20;99.90;;;;;;4993326;28;20740;-53
2022/04/11 11:00:20;;;;;;;5.10;2.67;;;14.80;99.90;;;;;;4999925;28;20654;-54
2022/04/11 11:03:01;;;;;;;4.43;2.93;;;14.80;99.90;;;;;;4995067;28;20216;-54
2022/04/11 11:05:35;;;;;;;6.23;3.00;;;14.80;99.90;;;;;;4996567;28;20208;-54
2022/04/11 11:08:11;;;;;;;4.63;2.80;;;14.90;99.90;;;;;;4997881;28;20559;-54
2022/04/11 11:10:49;;;;;;;4.47;2.90;;;15.10;99.90;;;;;;4998764;28;20219;-54
2022/04/11 11:13:40;;;;;;;2.87;2.57;;;15.00;99.90;;;;;;4998544;28;20214;-55
2022/04/11 11:16:07;;;;;;;6.67;2.87;;;15.30;99.90;;;;;;4996706;28;20216;-55
2022/04/11 11:18:50;;;;;;;5.80;2.80;;;15.30;99.90;;;;;;4998063;28;20199;-55
2022/04/11 11:21:22;;;;;;;3.77;2.67;;;15.40;99.90;;;;;;4999267;28;20654;-57
2022/04/11 11:26:48;;;;;;;4.33;3.00;;;15.20;99.90;;;;;;4999264;28;20291;-55
2022/04/11 11:29:19;;;;;;;4.90;3.03;;;15.40;99.90;;;;;;4999128;28;20248;-55
2022/04/11 11:31:49;;;;;;;4.53;2.77;;;15.90;99.90;;;;;;4996006;28;20646;-54
2022/04/11 11:34:19;;;;;;;6.87;2.83;;;15.80;99.90;;;;;;4991419;28;20365;-53
2022/04/11 11:36:47;;;;;;;6.23;3.10;;;15.80;99.90;;;;;;4999236;28;20576;-55
2022/04/11 11:39:18;;;;;;;5.37;2.60;;;15.80;99.90;;;;;;4998375;28;20209;-54
2022/04/11 11:41:50;;;;;;;6.53;3.03;;;16.10;99.90;;;;;;4996126;28;20206;-55
2022/04/11 11:44:18;;;;;;;5.43;2.30;;;16.20;99.90;;;;;;4996550;28;20206;-54
2022/04/11 11:46:55;;;;;;;3.57;2.80;;;16.30;99.90;;;;;;4999068;28;20733;-54
2022/04/11 11:49:24;;;;;;;5.73;2.97;;;16.30;99.90;;;;;;4997167;28;20329;-54
2022/04/11 11:51:52;;;;;;;4.13;3.07;;;16.60;99.90;;;;;;4994882;28;20202;-55
2022/04/11 11:54:36;;;;;;;6.63;2.93;;;16.50;99.90;;;;;;4999499;28;20249;-54
2022/04/11 11:57:19;;;;;;;5.37;2.80;;;16.80;99.90;;;;;;4996562;28;20202;-55
2022/04/11 11:59:50;;;;;;;4.83;3.20;;;16.20;99.90;;;;;;4996965;28;20248;-55
2022/04/11 12:05:27;;;;;;;6.13;3.27;;;16.00;99.90;;;;;;4999890;28;20258;-55
2022/04/11 12:08:13;;;;;;;3.73;3.17;;;16.20;99.90;;;;;;4996223;28;20200;-55
2022/04/11 12:10:41;;;;;;;5.43;3.20;;;16.50;99.90;;;;;;4997013;28;20615;-54
2022/04/11 12:13:08;;;;;;;5.33;4.13;;;16.50;99.90;;;;;;5000307;28;20218;-56
2022/04/11 12:15:36;;;;;;;4.57;3.67;;;17.00;99.90;;;;;;4997783;28;20403;-55
2022/04/11 12:18:06;;;;;;;4.37;3.23;;;17.40;99.90;;;;;;4997137;28;20286;-55
2022/04/11 12:20:34;;;;;;;5.17;3.20;;;17.40;99.90;;;;;;4999093;28;20210;-54
2022/04/11 12:23:11;;;;;;;7.47;3.77;;;17.10;99.90;;;;;;4998533;28;20241;-55
2022/04/11 12:25:40;;;;;;;4.93;3.27;;;16.80;99.90;;;;;;4998275;28;20241;-55
2022/04/11 12:28:18;;;;;;;4.03;3.10;;;16.70;99.90;;;;;;4995810;28;20299;-55
2022/04/11 12:30:49;;;;;;;4.87;3.57;;;16.20;99.90;;;;;;4996884;28;20298;-53
2022/04/11 12:33:52;;;;;;;4.33;3.87;;;16.30;99.90;;;;;;4993902;28;20217;-54
2022/04/11 12:36:26;;;;;;;6.73;4.07;;;16.60;99.90;;;;;;4996222;28;20851;-55
2022/04/11 12:39:13;;;;;;;5.53;4.10;;;16.90;99.90;;;;;;4994054;28;20204;-55
2022/04/11 12:41:47;;;;;;;5.43;4.60;;;17.00;99.90;;;;;;4997199;28;20269;-55
2022/04/11 12:44:15;;;;;;;7.33;5.20;;;17.10;99.90;;;;;;4993911;28;20779;-53
2022/04/11 12:46:55;;;;;;;6.17;4.27;;;17.10;99.90;;;;;;4997992;28;20224;-55
2022/04/11 12:49:23;;;;;;;4.77;3.90;;;17.20;99.90;;;;;;5010083;28;20302;-55
2022/04/11 12:52:05;;;;;;;9.47;5.03;;;16.70;99.90;;;;;;4997080;28;20246;-55
2022/04/11 12:54:39;;;;;;;7.47;5.17;;;17.10;99.90;;;;;;4995864;28;20205;-54
2022/04/11 12:57:08;;;;;;;6.37;4.73;;;16.60;99.90;;;;;;4993313;28;20327;-54
2022/04/11 12:59:37;;;;;;;6.63;4.40;;;17.20;99.90;;;;;;4991661;28;20658;-54
2022/04/11 13:02:10;;;;;;;8.50;5.10;;;17.30;99.90;;;;;;4995052;28;20688;-54
2022/04/11 13:04:50;;;;;;;6.80;4.10;;;17.30;99.90;;;;;;4994220;28;20433;-55
2022/04/11 13:07:23;;;;;;;5.70;3.80;;;16.80;99.90;;;;;;4995887;28;20258;-55